createdAt,value
2019-03-18T00:00:00.388Z,3.73
2019-03-18T00:00:32.528Z,3.23
2019-03-18T00:01:03.929Z,3.37
2019-03-18T00:01:35.114Z,3.20
2019-03-18T00:02:07.148Z,3.20
2019-03-18T00:02:38.316Z,3.53
2019-03-18T00:03:09.570Z,3.27
2019-03-18T00:03:40.756Z,3.63
2019-03-18T00:04:11.998Z,3.30
2019-03-18T00:04:43.168Z,3.77
2019-03-18T00:05:14.375Z,3.57
2019-03-18T00:05:45.600Z,3.60
2019-03-18T00:06:16.814Z,3.50
2019-03-18T00:06:47.968Z,3.33
2019-03-18T00:07:19.172Z,3.63
2019-03-18T00:07:50.351Z,3.40
2019-03-18T00:08:22.667Z,3.47
2019-03-18T00:08:53.828Z,3.57
2019-03-18T00:09:25.055Z,3.20
2019-03-18T00:09:56.256Z,3.50
2019-03-18T00:10:27.471Z,3.47
2019-03-18T00:10:58.714Z,3.30
2019-03-18T00:11:29.934Z,3.60
2019-03-18T00:12:01.093Z,3.50
2019-03-18T00:12:32.323Z,3.73
2019-03-18T00:13:03.475Z,3.57
2019-03-18T00:13:34.685Z,3.53
2019-03-18T00:14:05.836Z,3.43
2019-03-18T00:14:37.046Z,3.07
2019-03-18T00:15:08.436Z,3.40
2019-03-18T00:15:39.626Z,3.30
2019-03-18T00:16:10.812Z,2.77
2019-03-18T00:16:42.045Z,2.70
2019-03-18T00:17:13.282Z,3.37
2019-03-18T00:17:44.546Z,3.47
2019-03-18T00:18:15.785Z,3.83
2019-03-18T00:18:47.014Z,3.90
2019-03-18T00:19:18.281Z,3.33
2019-03-18T00:19:49.527Z,3.83
2019-03-18T00:20:20.757Z,3.77
2019-03-18T00:20:51.988Z,3.40
2019-03-18T00:21:23.194Z,3.60
2019-03-18T00:21:54.475Z,3.93
2019-03-18T00:22:25.678Z,3.40
2019-03-18T00:22:56.831Z,3.63
2019-03-18T00:23:28.052Z,3.60
2019-03-18T00:23:59.212Z,3.40
2019-03-18T00:24:30.421Z,3.77
2019-03-18T00:25:03.078Z,3.70
2019-03-18T00:25:34.282Z,3.57
2019-03-18T00:26:05.432Z,3.63
2019-03-18T00:26:36.646Z,3.50
2019-03-18T00:27:07.814Z,3.27
2019-03-18T00:27:39.061Z,3.53
2019-03-18T00:28:10.212Z,3.20
2019-03-18T00:28:41.424Z,3.90
2019-03-18T00:29:12.583Z,3.70
2019-03-18T00:29:43.809Z,3.47
2019-03-18T00:30:19.015Z,3.30
2019-03-18T00:30:50.236Z,3.30
2019-03-18T00:31:21.476Z,3.33
2019-03-18T00:31:52.696Z,3.23
2019-03-18T00:32:23.953Z,3.20
2019-03-18T00:32:55.268Z,3.50
2019-03-18T00:33:26.504Z,3.40
2019-03-18T00:33:58.038Z,3.50
2019-03-18T00:34:29.283Z,4.03
2019-03-18T00:35:00.519Z,3.60
2019-03-18T00:35:31.765Z,3.57
2019-03-18T00:36:03.004Z,4.10
2019-03-18T00:36:34.226Z,3.77
2019-03-18T00:37:05.391Z,3.50
2019-03-18T00:37:36.611Z,4.47
2019-03-18T00:38:07.764Z,3.70
2019-03-18T00:38:38.994Z,3.40
2019-03-18T00:39:10.169Z,3.47
2019-03-18T00:39:41.433Z,3.43
2019-03-18T00:40:17.621Z,3.53
2019-03-18T00:40:48.837Z,3.60
2019-03-18T00:41:20.033Z,3.47
2019-03-18T00:41:51.201Z,3.00
2019-03-18T00:42:22.395Z,3.40
2019-03-18T00:42:53.616Z,3.30
2019-03-18T00:43:24.865Z,3.00
2019-03-18T00:43:56.057Z,3.27
2019-03-18T00:44:27.429Z,3.67
2019-03-18T00:44:58.596Z,3.60
2019-03-18T00:45:29.787Z,3.57
2019-03-18T00:46:00.966Z,3.10
2019-03-18T00:46:32.194Z,3.53
2019-03-18T00:47:03.412Z,3.50
2019-03-18T00:47:34.620Z,3.40
2019-03-18T00:48:05.776Z,3.90
2019-03-18T00:48:36.992Z,3.30
2019-03-18T00:49:08.160Z,3.90
2019-03-18T00:49:39.411Z,3.47
2019-03-18T00:50:14.670Z,3.57
2019-03-18T00:50:45.884Z,3.67
2019-03-18T00:51:17.055Z,4.17
2019-03-18T00:51:48.278Z,3.90
2019-03-18T00:52:19.440Z,3.70
2019-03-18T00:52:50.652Z,4.10
2019-03-18T00:53:21.831Z,3.97
2019-03-18T00:53:53.076Z,3.30
2019-03-18T00:54:24.452Z,3.57
2019-03-18T00:54:56.663Z,3.37
2019-03-18T00:55:27.816Z,3.87
2019-03-18T00:55:59.011Z,3.23
2019-03-18T00:56:30.169Z,3.30
2019-03-18T00:57:01.391Z,3.13
2019-03-18T00:57:32.537Z,3.10
2019-03-18T00:58:03.755Z,3.30
2019-03-18T00:58:34.929Z,3.37
2019-03-18T00:59:06.170Z,3.27
2019-03-18T00:59:37.299Z,3.60
2019-03-18T01:00:18.067Z,3.17
2019-03-18T01:00:49.231Z,3.53
2019-03-18T01:01:20.454Z,3.73
2019-03-18T01:01:51.640Z,3.70
2019-03-18T01:02:22.867Z,3.50
2019-03-18T01:02:54.346Z,3.53
2019-03-18T01:03:25.599Z,3.50
2019-03-18T01:03:56.844Z,3.40
2019-03-18T01:04:28.093Z,3.50
2019-03-18T01:04:59.332Z,3.47
2019-03-18T01:05:30.596Z,3.60
2019-03-18T01:06:01.823Z,3.23
2019-03-18T01:06:33.113Z,3.33
2019-03-18T01:07:04.319Z,3.33
2019-03-18T01:07:35.484Z,2.87
2019-03-18T01:08:06.714Z,3.10
2019-03-18T01:08:37.850Z,3.17
2019-03-18T01:09:09.160Z,3.03
2019-03-18T01:09:40.297Z,2.97
2019-03-18T01:10:14.321Z,2.93
2019-03-18T01:10:45.486Z,2.80
2019-03-18T01:11:16.680Z,3.57
2019-03-18T01:11:47.902Z,3.00
2019-03-18T01:12:19.194Z,2.90
2019-03-18T01:12:50.428Z,3.40
2019-03-18T01:13:21.687Z,3.10
2019-03-18T01:13:52.924Z,3.30
2019-03-18T01:14:24.540Z,2.70
2019-03-18T01:14:55.780Z,2.93
2019-03-18T01:15:28.695Z,2.87
2019-03-18T01:16:00.174Z,2.73
2019-03-18T01:16:31.400Z,2.60
2019-03-18T01:17:02.649Z,2.67
2019-03-18T01:17:33.803Z,2.90
2019-03-18T01:18:05.021Z,3.00
2019-03-18T01:18:36.167Z,2.90
2019-03-18T01:19:07.373Z,2.90
2019-03-18T01:19:38.532Z,3.03
2019-03-18T01:20:11.327Z,2.87
2019-03-18T01:20:42.492Z,3.43
2019-03-18T01:21:13.697Z,3.00
2019-03-18T01:21:44.871Z,2.67
2019-03-18T01:22:16.070Z,2.60
2019-03-18T01:22:47.217Z,2.80
2019-03-18T01:23:18.429Z,3.03
2019-03-18T01:23:50.639Z,2.93
2019-03-18T01:24:21.886Z,2.80
2019-03-18T01:24:53.049Z,2.40
2019-03-18T01:25:24.322Z,2.50
2019-03-18T01:25:55.494Z,2.80
2019-03-18T01:26:26.691Z,2.50
2019-03-18T01:26:57.855Z,2.67
2019-03-18T01:27:30.100Z,2.80
2019-03-18T01:28:01.289Z,2.90
2019-03-18T01:28:32.522Z,2.93
2019-03-18T01:29:03.681Z,2.93
2019-03-18T01:29:34.899Z,2.63
2019-03-18T01:30:08.759Z,2.87
2019-03-18T01:30:39.975Z,2.80
2019-03-18T01:31:11.143Z,3.43
2019-03-18T01:31:42.349Z,3.03
2019-03-18T01:32:13.536Z,3.27
2019-03-18T01:32:44.732Z,3.30
2019-03-18T01:33:15.914Z,3.27
2019-03-18T01:33:47.088Z,2.80
2019-03-18T01:34:18.402Z,2.83
2019-03-18T01:34:50.659Z,2.83
2019-03-18T01:35:21.896Z,3.10
2019-03-18T01:35:53.198Z,2.70
2019-03-18T01:36:24.430Z,2.70
2019-03-18T01:36:55.619Z,2.57
2019-03-18T01:37:26.799Z,2.80
2019-03-18T01:37:57.997Z,2.50
2019-03-18T01:38:29.179Z,3.20
2019-03-18T01:39:00.376Z,2.80
2019-03-18T01:39:31.572Z,2.57
2019-03-18T01:40:09.074Z,3.00
2019-03-18T01:40:40.268Z,2.53
2019-03-18T01:41:11.448Z,2.80
2019-03-18T01:41:42.704Z,3.13
2019-03-18T01:42:16.692Z,2.60
2019-03-18T01:42:47.000Z,3.13
2019-03-18T01:43:18.202Z,3.17
2019-03-18T01:43:49.361Z,3.00
2019-03-18T01:44:20.573Z,3.30
2019-03-18T01:44:51.733Z,2.90
2019-03-18T01:45:22.948Z,3.03
2019-03-18T01:45:54.113Z,3.00
2019-03-18T01:46:25.325Z,2.70
2019-03-18T01:46:56.545Z,2.97
2019-03-18T01:47:28.013Z,2.87
2019-03-18T01:47:59.183Z,2.83
2019-03-18T01:48:30.397Z,2.23
2019-03-18T01:49:01.553Z,2.90
2019-03-18T01:49:32.752Z,2.73
2019-03-18T01:50:14.437Z,2.87
2019-03-18T01:50:45.731Z,2.73
2019-03-18T01:51:16.910Z,2.60
2019-03-18T01:51:48.157Z,2.93
2019-03-18T01:52:19.337Z,2.63
2019-03-18T01:52:50.502Z,2.50
2019-03-18T01:53:21.693Z,2.60
2019-03-18T01:53:52.865Z,2.67
2019-03-18T01:54:24.317Z,2.70
2019-03-18T01:54:55.535Z,2.63
2019-03-18T01:55:26.715Z,2.70
2019-03-18T01:55:58.040Z,2.80
2019-03-18T01:56:29.223Z,2.60
2019-03-18T01:57:00.418Z,2.80
2019-03-18T01:57:31.600Z,2.80
2019-03-18T01:58:03.790Z,2.80
2019-03-18T01:58:36.042Z,2.83
2019-03-18T01:59:07.200Z,2.90
2019-03-18T01:59:38.496Z,2.93
2019-03-18T02:00:13.046Z,2.63
2019-03-18T02:00:44.256Z,2.70
2019-03-18T02:01:15.416Z,2.80
2019-03-18T02:01:46.624Z,3.00
2019-03-18T02:02:17.821Z,3.03
2019-03-18T02:02:51.785Z,2.53
2019-03-18T02:03:22.208Z,2.83
2019-03-18T02:03:53.455Z,2.47
2019-03-18T02:04:24.878Z,2.57
2019-03-18T02:04:56.121Z,2.50
2019-03-18T02:05:27.447Z,2.50
2019-03-18T02:05:58.726Z,2.60
2019-03-18T02:06:30.024Z,2.70
2019-03-18T02:07:01.269Z,2.70
2019-03-18T02:07:32.484Z,2.50
2019-03-18T02:08:03.654Z,2.67
2019-03-18T02:08:34.861Z,2.60
2019-03-18T02:09:06.017Z,2.50
2019-03-18T02:09:37.244Z,2.67
2019-03-18T02:10:12.879Z,2.47
2019-03-18T02:10:44.103Z,2.60
2019-03-18T02:11:15.301Z,2.37
2019-03-18T02:11:46.519Z,2.73
2019-03-18T02:12:17.675Z,3.13
2019-03-18T02:12:48.875Z,2.80
2019-03-18T02:13:20.035Z,2.70
2019-03-18T02:13:51.241Z,2.93
2019-03-18T02:14:22.407Z,2.90
2019-03-18T02:14:53.631Z,3.30
2019-03-18T02:15:24.790Z,2.50
2019-03-18T02:15:55.992Z,2.67
2019-03-18T02:16:27.412Z,2.40
2019-03-18T02:16:58.622Z,2.40
2019-03-18T02:17:29.826Z,2.30
2019-03-18T02:18:01.099Z,2.30
2019-03-18T02:18:32.425Z,2.27
2019-03-18T02:19:04.671Z,2.40
2019-03-18T02:19:36.010Z,2.57
2019-03-18T02:20:12.374Z,2.20
2019-03-18T02:20:43.613Z,2.40
2019-03-18T02:21:14.872Z,2.57
2019-03-18T02:21:46.108Z,2.50
2019-03-18T02:22:17.348Z,2.50
2019-03-18T02:22:48.574Z,2.17
2019-03-18T02:23:19.727Z,2.60
2019-03-18T02:23:50.932Z,2.63
2019-03-18T02:24:22.097Z,2.97
2019-03-18T02:24:53.322Z,2.60
2019-03-18T02:25:24.492Z,2.93
2019-03-18T02:25:55.713Z,2.73
2019-03-18T02:26:26.861Z,2.63
2019-03-18T02:26:58.075Z,2.40
2019-03-18T02:27:29.234Z,2.80
2019-03-18T02:28:00.428Z,2.70
2019-03-18T02:28:31.576Z,2.87
2019-03-18T02:29:02.851Z,2.37
2019-03-18T02:29:34.003Z,2.70
2019-03-18T02:30:14.185Z,2.53
2019-03-18T02:30:45.425Z,2.70
2019-03-18T02:31:16.629Z,2.53
2019-03-18T02:31:47.861Z,2.43
2019-03-18T02:32:19.100Z,2.60
2019-03-18T02:32:50.360Z,2.30
2019-03-18T02:33:21.581Z,2.10
2019-03-18T02:33:52.835Z,2.40
2019-03-18T02:34:24.324Z,2.43
2019-03-18T02:34:55.553Z,2.20
2019-03-18T02:35:26.790Z,2.43
2019-03-18T02:35:58.041Z,2.20
2019-03-18T02:36:29.288Z,2.20
2019-03-18T02:37:00.511Z,2.40
2019-03-18T02:37:31.766Z,2.27
2019-03-18T02:38:02.984Z,2.53
2019-03-18T02:38:34.133Z,2.40
2019-03-18T02:39:06.341Z,2.10
2019-03-18T02:39:37.491Z,2.87
2019-03-18T02:40:09.696Z,2.43
2019-03-18T02:40:40.871Z,2.43
2019-03-18T02:41:12.083Z,2.10
2019-03-18T02:41:43.240Z,2.60
2019-03-18T02:42:14.450Z,2.47
2019-03-18T02:42:45.646Z,2.60
2019-03-18T02:43:16.886Z,2.80
2019-03-18T02:43:48.147Z,2.13
2019-03-18T02:44:19.371Z,2.03
2019-03-18T02:44:50.607Z,2.20
2019-03-18T02:45:24.622Z,2.37
2019-03-18T02:46:09.375Z,2.70
2019-03-18T02:46:29.283Z,2.07
2019-03-18T02:47:00.517Z,2.23
2019-03-18T02:47:31.764Z,2.37
2019-03-18T02:48:02.977Z,2.10
2019-03-18T02:48:34.143Z,2.10
2019-03-18T02:49:05.358Z,2.30
2019-03-18T02:49:36.519Z,1.80
2019-03-18T02:50:08.618Z,1.90
2019-03-18T02:50:39.809Z,2.10
2019-03-18T02:51:11.121Z,2.20
2019-03-18T02:51:42.273Z,1.93
2019-03-18T02:52:13.511Z,2.53
2019-03-18T02:52:44.721Z,2.17
2019-03-18T02:53:16.022Z,1.97
2019-03-18T02:53:47.250Z,1.97
2019-03-18T02:54:18.502Z,2.00
2019-03-18T02:54:49.739Z,2.10
2019-03-18T02:55:20.966Z,2.23
2019-03-18T02:55:52.230Z,2.20
2019-03-18T02:56:23.467Z,2.23
2019-03-18T02:56:54.889Z,2.37
2019-03-18T02:57:27.454Z,1.97
2019-03-18T02:57:58.661Z,2.20
2019-03-18T02:58:29.823Z,2.37
2019-03-18T02:59:01.009Z,1.97
2019-03-18T02:59:32.211Z,2.20
2019-03-18T03:00:11.225Z,2.07
2019-03-18T03:00:42.482Z,2.03
2019-03-18T03:01:13.659Z,2.10
2019-03-18T03:01:44.805Z,2.07
2019-03-18T03:02:16.970Z,2.00
2019-03-18T03:02:48.181Z,2.07
2019-03-18T03:03:19.330Z,2.13
2019-03-18T03:03:50.582Z,2.33
2019-03-18T03:04:21.805Z,2.20
2019-03-18T03:04:52.952Z,1.93
2019-03-18T03:05:24.165Z,1.90
2019-03-18T03:05:55.411Z,2.17
2019-03-18T03:06:26.612Z,2.17
2019-03-18T03:06:58.038Z,2.07
2019-03-18T03:07:29.284Z,2.20
2019-03-18T03:08:00.563Z,1.83
2019-03-18T03:08:31.816Z,2.10
2019-03-18T03:09:05.345Z,1.97
2019-03-18T03:09:36.593Z,2.20
2019-03-18T03:10:10.010Z,2.37
2019-03-18T03:10:41.158Z,2.10
2019-03-18T03:11:12.366Z,2.20
2019-03-18T03:11:43.531Z,2.40
2019-03-18T03:12:14.737Z,2.03
2019-03-18T03:12:45.909Z,2.03
2019-03-18T03:13:17.084Z,2.40
2019-03-18T03:13:48.279Z,1.90
2019-03-18T03:14:19.489Z,1.90
2019-03-18T03:14:50.778Z,2.20
2019-03-18T03:15:22.069Z,1.77
2019-03-18T03:15:53.245Z,1.90
2019-03-18T03:16:27.225Z,1.83
2019-03-18T03:16:57.803Z,1.93
2019-03-18T03:17:28.988Z,1.87
2019-03-18T03:18:00.168Z,2.07
2019-03-18T03:18:31.359Z,2.10
2019-03-18T03:19:02.541Z,1.90
2019-03-18T03:19:33.745Z,2.17
2019-03-18T03:20:07.622Z,2.00
2019-03-18T03:20:39.859Z,1.90
2019-03-18T03:21:11.046Z,2.40
2019-03-18T03:21:42.226Z,2.20
2019-03-18T03:22:13.403Z,2.40
2019-03-18T03:22:44.605Z,2.13
2019-03-18T03:23:15.771Z,1.90
2019-03-18T03:23:46.943Z,2.00
2019-03-18T03:24:18.162Z,2.17
2019-03-18T03:24:49.415Z,2.27
2019-03-18T03:25:24.526Z,2.20
2019-03-18T03:25:53.666Z,2.20
2019-03-18T03:26:25.059Z,1.97
2019-03-18T03:26:56.221Z,1.97
2019-03-18T03:27:27.442Z,2.40
2019-03-18T03:27:58.621Z,2.07
2019-03-18T03:28:29.828Z,2.10
2019-03-18T03:29:01.031Z,1.87
2019-03-18T03:29:32.192Z,2.10
2019-03-18T03:30:10.260Z,1.90
2019-03-18T03:30:41.529Z,1.57
2019-03-18T03:31:12.727Z,1.70
2019-03-18T03:31:43.961Z,1.80
2019-03-18T03:32:15.270Z,2.00
2019-03-18T03:32:46.472Z,2.03
2019-03-18T03:33:17.797Z,1.70
2019-03-18T03:33:49.124Z,1.80
2019-03-18T03:34:20.340Z,2.07
2019-03-18T03:34:51.744Z,1.80
2019-03-18T03:35:23.127Z,2.00
2019-03-18T03:35:54.338Z,1.83
2019-03-18T03:36:26.537Z,1.93
2019-03-18T03:36:57.834Z,1.73
2019-03-18T03:37:29.026Z,2.00
2019-03-18T03:38:00.215Z,1.90
2019-03-18T03:38:31.440Z,1.80
2019-03-18T03:39:05.021Z,2.20
2019-03-18T03:39:36.200Z,2.43
2019-03-18T03:40:08.892Z,2.33
2019-03-18T03:40:40.066Z,2.30
2019-03-18T03:41:11.236Z,1.83
2019-03-18T03:41:42.433Z,1.80
2019-03-18T03:42:13.615Z,1.70
2019-03-18T03:42:44.803Z,2.03
2019-03-18T03:43:15.978Z,2.13
2019-03-18T03:43:47.191Z,2.10
2019-03-18T03:44:18.345Z,1.93
2019-03-18T03:44:49.564Z,1.70
2019-03-18T03:45:20.745Z,1.90
2019-03-18T03:45:51.928Z,1.93
2019-03-18T03:46:23.084Z,1.83
2019-03-18T03:46:54.480Z,1.87
2019-03-18T03:47:25.731Z,1.83
2019-03-18T03:47:57.260Z,1.70
2019-03-18T03:48:28.437Z,1.87
2019-03-18T03:48:59.637Z,1.83
2019-03-18T03:49:30.843Z,2.00
2019-03-18T03:50:02.239Z,2.10
2019-03-18T03:50:33.430Z,2.20
2019-03-18T03:51:04.694Z,1.83
2019-03-18T03:51:35.860Z,2.00
2019-03-18T03:52:07.087Z,1.87
2019-03-18T03:52:38.240Z,2.27
2019-03-18T03:53:09.433Z,1.80
2019-03-18T03:53:40.679Z,2.20
2019-03-18T03:54:11.865Z,2.03
2019-03-18T03:54:43.044Z,2.27
2019-03-18T03:55:14.239Z,2.00
2019-03-18T03:55:45.521Z,2.17
2019-03-18T03:56:16.713Z,2.03
2019-03-18T03:56:47.909Z,2.30
2019-03-18T03:57:19.099Z,2.10
2019-03-18T03:57:50.276Z,2.00
2019-03-18T03:58:21.462Z,1.90
2019-03-18T03:58:52.945Z,2.43
2019-03-18T03:59:24.439Z,2.13
2019-03-18T03:59:55.626Z,2.10
2019-03-18T04:00:26.812Z,1.77
2019-03-18T04:00:58.004Z,1.90
2019-03-18T04:01:29.774Z,1.90
2019-03-18T04:02:02.226Z,1.70
2019-03-18T04:02:33.494Z,1.90
2019-03-18T04:03:05.673Z,1.93
2019-03-18T04:03:38.579Z,2.20
2019-03-18T04:04:10.170Z,2.20
2019-03-18T04:04:41.343Z,2.07
2019-03-18T04:05:13.557Z,2.03
2019-03-18T04:05:44.722Z,2.17
2019-03-18T04:06:15.920Z,2.10
2019-03-18T04:06:47.083Z,2.07
2019-03-18T04:07:18.304Z,1.87
2019-03-18T04:07:49.471Z,2.03
2019-03-18T04:08:20.678Z,2.47
2019-03-18T04:08:51.911Z,1.73
2019-03-18T04:09:23.136Z,2.33
2019-03-18T04:09:54.388Z,1.90
2019-03-18T04:10:25.600Z,1.93
2019-03-18T04:10:56.856Z,2.20
2019-03-18T04:11:28.060Z,2.27
2019-03-18T04:11:59.247Z,2.10
2019-03-18T04:12:30.445Z,1.70
2019-03-18T04:13:01.631Z,1.80
2019-03-18T04:13:32.810Z,2.10
2019-03-18T04:14:03.997Z,1.83
2019-03-18T04:14:35.176Z,1.83
2019-03-18T04:15:11.354Z,1.90
2019-03-18T04:15:42.546Z,1.70
2019-03-18T04:16:13.735Z,1.90
2019-03-18T04:16:55.812Z,2.00
2019-03-18T04:17:18.028Z,2.03
2019-03-18T04:17:49.247Z,1.83
2019-03-18T04:18:20.452Z,2.20
2019-03-18T04:18:51.649Z,2.50
2019-03-18T04:19:22.880Z,1.90
2019-03-18T04:19:54.066Z,2.20
2019-03-18T04:20:25.271Z,2.20
2019-03-18T04:20:56.514Z,2.20
2019-03-18T04:21:27.808Z,2.03
2019-03-18T04:21:59.022Z,2.10
2019-03-18T04:22:30.307Z,2.03
2019-03-18T04:23:01.512Z,2.57
2019-03-18T04:23:32.685Z,2.17
2019-03-18T04:24:03.906Z,2.40
2019-03-18T04:24:35.069Z,1.70
2019-03-18T04:25:07.079Z,2.10
2019-03-18T04:25:38.250Z,2.27
2019-03-18T04:26:09.621Z,1.80
2019-03-18T04:26:40.783Z,2.40
2019-03-18T04:27:12.067Z,2.30
2019-03-18T04:27:43.227Z,2.13
2019-03-18T04:28:14.447Z,1.93
2019-03-18T04:28:45.607Z,1.70
2019-03-18T04:29:16.817Z,1.93
2019-03-18T04:29:48.059Z,2.20
2019-03-18T04:30:19.302Z,1.83
2019-03-18T04:30:50.535Z,1.90
2019-03-18T04:31:21.754Z,2.10
2019-03-18T04:31:52.909Z,2.00
2019-03-18T04:32:24.444Z,2.00
2019-03-18T04:32:55.606Z,2.07
2019-03-18T04:33:26.794Z,2.00
2019-03-18T04:33:57.965Z,2.30
2019-03-18T04:34:29.144Z,2.00
2019-03-18T04:35:00.397Z,2.10
2019-03-18T04:35:31.582Z,2.50
2019-03-18T04:36:02.766Z,2.23
2019-03-18T04:36:33.922Z,2.30
2019-03-18T04:37:05.081Z,2.40
2019-03-18T04:37:36.278Z,2.33
2019-03-18T04:38:07.449Z,2.27
2019-03-18T04:38:38.644Z,2.00
2019-03-18T04:39:09.864Z,2.30
2019-03-18T04:39:41.156Z,2.10
2019-03-18T04:40:12.307Z,1.80
2019-03-18T04:40:43.510Z,1.87
2019-03-18T04:41:14.704Z,1.90
2019-03-18T04:41:45.955Z,1.90
2019-03-18T04:42:17.163Z,1.90
2019-03-18T04:42:48.376Z,2.33
2019-03-18T04:43:19.635Z,2.10
2019-03-18T04:43:50.885Z,2.60
2019-03-18T04:44:22.074Z,1.93
2019-03-18T04:44:53.264Z,2.20
2019-03-18T04:45:24.435Z,2.03
2019-03-18T04:45:55.622Z,1.80
2019-03-18T04:46:26.814Z,2.40
2019-03-18T04:46:57.988Z,1.93
2019-03-18T04:47:29.192Z,2.27
2019-03-18T04:48:00.370Z,1.90
2019-03-18T04:48:31.631Z,2.07
2019-03-18T04:49:02.848Z,2.00
2019-03-18T04:49:34.046Z,1.90
2019-03-18T04:50:10.110Z,2.37
2019-03-18T04:50:41.324Z,2.03
2019-03-18T04:51:12.511Z,2.27
2019-03-18T04:51:43.689Z,2.30
2019-03-18T04:52:14.878Z,1.97
2019-03-18T04:52:46.079Z,2.00
2019-03-18T04:53:17.267Z,2.00
2019-03-18T04:53:48.464Z,2.60
2019-03-18T04:54:19.683Z,2.20
2019-03-18T04:54:50.873Z,2.17
2019-03-18T04:55:22.072Z,2.00
2019-03-18T04:55:53.243Z,2.37
2019-03-18T04:56:24.605Z,2.30
2019-03-18T04:56:55.773Z,2.00
2019-03-18T04:57:26.959Z,2.13
2019-03-18T04:57:58.135Z,2.07
2019-03-18T04:58:29.328Z,2.30
2019-03-18T04:59:00.505Z,2.10
2019-03-18T04:59:31.721Z,2.00
2019-03-18T05:00:06.569Z,1.83
2019-03-18T05:00:37.767Z,2.10
2019-03-18T05:01:08.928Z,2.27
2019-03-18T05:01:40.145Z,1.90
2019-03-18T05:02:11.311Z,1.93
2019-03-18T05:02:42.510Z,2.00
2019-03-18T05:03:13.656Z,1.80
2019-03-18T05:03:44.841Z,2.00
2019-03-18T05:04:16.021Z,2.17
2019-03-18T05:04:47.188Z,1.70
2019-03-18T05:05:18.346Z,2.20
2019-03-18T05:05:49.552Z,1.90
2019-03-18T05:06:20.718Z,1.83
2019-03-18T05:06:51.958Z,2.20
2019-03-18T05:07:23.207Z,2.50
2019-03-18T05:07:54.450Z,2.10
2019-03-18T05:08:25.698Z,2.30
2019-03-18T05:08:57.008Z,2.57
2019-03-18T05:09:28.258Z,1.90
2019-03-18T05:09:59.436Z,2.30
2019-03-18T05:10:30.652Z,2.20
2019-03-18T05:11:02.930Z,2.07
2019-03-18T05:11:34.235Z,2.10
2019-03-18T05:12:05.452Z,2.00
2019-03-18T05:12:36.700Z,2.80
2019-03-18T05:13:07.944Z,1.90
2019-03-18T05:13:39.197Z,2.33
2019-03-18T05:14:10.513Z,2.30
2019-03-18T05:14:41.730Z,1.63
2019-03-18T05:15:12.889Z,1.57
2019-03-18T05:15:44.110Z,1.80
2019-03-18T05:16:15.259Z,2.10
2019-03-18T05:16:46.456Z,2.30
2019-03-18T05:17:26.450Z,1.90
2019-03-18T05:17:50.711Z,2.00
2019-03-18T05:18:21.870Z,2.30
2019-03-18T05:18:54.351Z,2.40
2019-03-18T05:19:25.522Z,2.33
2019-03-18T05:19:56.819Z,2.23
2019-03-18T05:20:27.979Z,2.30
2019-03-18T05:20:59.167Z,2.30
2019-03-18T05:21:30.307Z,3.23
2019-03-18T05:22:01.563Z,2.37
2019-03-18T05:22:32.786Z,2.83
2019-03-18T05:23:04.018Z,2.20
2019-03-18T05:23:35.168Z,2.30
2019-03-18T05:24:06.355Z,2.40
2019-03-18T05:24:37.541Z,2.40
2019-03-18T05:25:09.245Z,2.17
2019-03-18T05:25:40.410Z,2.33
2019-03-18T05:26:11.621Z,1.97
2019-03-18T05:26:42.771Z,2.40
2019-03-18T05:27:13.978Z,1.87
2019-03-18T05:27:45.149Z,2.10
2019-03-18T05:28:16.357Z,2.07
2019-03-18T05:28:47.521Z,2.90
2019-03-18T05:29:18.743Z,2.37
2019-03-18T05:29:49.935Z,2.00
2019-03-18T05:30:21.169Z,2.03
2019-03-18T05:30:52.473Z,1.97
2019-03-18T05:31:23.741Z,2.00
2019-03-18T05:31:55.195Z,2.07
2019-03-18T05:32:26.429Z,1.93
2019-03-18T05:32:57.851Z,2.30
2019-03-18T05:33:30.052Z,2.50
2019-03-18T05:34:01.335Z,2.37
2019-03-18T05:34:32.518Z,2.50
2019-03-18T05:35:04.802Z,2.70
2019-03-18T05:35:35.973Z,2.03
2019-03-18T05:36:07.567Z,2.10
2019-03-18T05:36:38.743Z,2.17
2019-03-18T05:37:10.103Z,2.20
2019-03-18T05:37:41.329Z,2.53
2019-03-18T05:38:12.564Z,2.70
2019-03-18T05:38:43.708Z,2.17
2019-03-18T05:39:14.940Z,2.70
2019-03-18T05:39:46.197Z,2.20
2019-03-18T05:40:17.448Z,2.37
2019-03-18T05:40:48.615Z,2.27
2019-03-18T05:41:19.821Z,2.00
2019-03-18T05:41:50.997Z,2.50
2019-03-18T05:42:22.213Z,2.37
2019-03-18T05:42:53.377Z,2.17
2019-03-18T05:43:24.949Z,2.00
2019-03-18T05:43:56.117Z,2.30
2019-03-18T05:44:27.333Z,2.00
2019-03-18T05:44:58.494Z,2.03
2019-03-18T05:45:29.691Z,1.93
2019-03-18T05:46:00.878Z,2.30
2019-03-18T05:46:32.123Z,2.20
2019-03-18T05:47:03.359Z,2.43
2019-03-18T05:47:39.478Z,2.40
2019-03-18T05:48:07.729Z,2.37
2019-03-18T05:48:38.965Z,2.50
2019-03-18T05:49:10.213Z,2.33
2019-03-18T05:49:41.449Z,2.00
2019-03-18T05:50:12.683Z,2.13
2019-03-18T05:50:43.885Z,2.40
2019-03-18T05:51:15.067Z,2.50
2019-03-18T05:51:46.419Z,2.57
2019-03-18T05:52:17.747Z,2.77
2019-03-18T05:52:48.959Z,2.20
2019-03-18T05:53:20.194Z,2.30
2019-03-18T05:53:51.456Z,2.07
2019-03-18T05:54:22.724Z,2.10
2019-03-18T05:54:53.979Z,2.50
2019-03-18T05:55:26.177Z,2.50
2019-03-18T05:55:57.379Z,2.10
2019-03-18T05:56:29.552Z,2.33
2019-03-18T05:57:00.798Z,2.30
2019-03-18T05:57:32.024Z,2.30
2019-03-18T05:58:03.305Z,2.30
2019-03-18T05:58:34.532Z,2.17
2019-03-18T05:59:05.777Z,2.40
2019-03-18T05:59:36.994Z,2.30
2019-03-18T06:00:11.217Z,3.00
2019-03-18T06:00:42.451Z,2.63
2019-03-18T06:01:13.690Z,2.87
2019-03-18T06:01:44.881Z,2.77
2019-03-18T06:02:16.097Z,2.80
2019-03-18T06:02:47.463Z,2.80
2019-03-18T06:03:18.759Z,3.20
2019-03-18T06:03:49.936Z,3.17
2019-03-18T06:04:21.130Z,2.97
2019-03-18T06:04:52.340Z,3.07
2019-03-18T06:05:23.511Z,2.93
2019-03-18T06:05:55.026Z,3.17
2019-03-18T06:06:26.203Z,3.00
2019-03-18T06:06:57.397Z,3.00
2019-03-18T06:07:28.619Z,3.00
2019-03-18T06:07:59.890Z,2.90
2019-03-18T06:08:31.131Z,2.57
2019-03-18T06:09:03.975Z,3.50
2019-03-18T06:09:35.221Z,2.63
2019-03-18T06:10:09.459Z,2.20
2019-03-18T06:10:40.700Z,2.20
2019-03-18T06:11:11.923Z,2.13
2019-03-18T06:11:43.131Z,2.37
2019-03-18T06:12:14.319Z,1.97
2019-03-18T06:12:45.572Z,2.77
2019-03-18T06:13:16.795Z,2.37
2019-03-18T06:13:48.025Z,2.43
2019-03-18T06:14:19.265Z,2.30
2019-03-18T06:14:50.485Z,2.10
2019-03-18T06:15:21.712Z,2.03
2019-03-18T06:15:52.938Z,2.20
2019-03-18T06:16:24.607Z,2.40
2019-03-18T06:16:55.818Z,2.40
2019-03-18T06:17:27.251Z,2.30
2019-03-18T06:17:58.481Z,2.83
2019-03-18T06:18:29.771Z,2.50
2019-03-18T06:19:01.018Z,2.80
2019-03-18T06:19:32.256Z,2.67
2019-03-18T06:20:07.483Z,2.87
2019-03-18T06:20:38.707Z,3.10
2019-03-18T06:21:09.957Z,3.23
2019-03-18T06:21:41.189Z,4.20
2019-03-18T06:22:12.420Z,3.50
2019-03-18T06:22:43.633Z,4.90
2019-03-18T06:23:14.942Z,4.10
2019-03-18T06:23:46.174Z,4.57
2019-03-18T06:24:17.415Z,4.00
2019-03-18T06:24:48.640Z,3.80
2019-03-18T06:25:19.982Z,4.37
2019-03-18T06:25:51.295Z,3.90
2019-03-18T06:26:22.542Z,3.87
2019-03-18T06:26:53.794Z,3.93
2019-03-18T06:27:25.184Z,3.07
2019-03-18T06:27:56.388Z,3.17
2019-03-18T06:28:28.583Z,2.73
2019-03-18T06:28:59.852Z,2.90
2019-03-18T06:29:31.087Z,2.60
2019-03-18T06:30:07.229Z,2.77
2019-03-18T06:30:38.477Z,2.90
2019-03-18T06:31:09.719Z,2.80
2019-03-18T06:31:40.961Z,2.83
2019-03-18T06:32:12.184Z,2.60
2019-03-18T06:32:43.407Z,2.50
2019-03-18T06:33:14.632Z,2.50
2019-03-18T06:33:45.874Z,2.73
2019-03-18T06:34:17.054Z,2.70
2019-03-18T06:34:49.242Z,2.50
2019-03-18T06:35:20.764Z,2.80
2019-03-18T06:35:52.039Z,2.77
2019-03-18T06:36:23.233Z,2.67
2019-03-18T06:36:54.645Z,2.67
2019-03-18T06:37:25.820Z,2.90
2019-03-18T06:37:57.987Z,2.60
2019-03-18T06:38:29.171Z,2.83
2019-03-18T06:39:00.384Z,3.00
2019-03-18T06:39:31.525Z,2.67
2019-03-18T06:40:08.695Z,2.47
2019-03-18T06:40:40.869Z,2.63
2019-03-18T06:41:12.073Z,2.77
2019-03-18T06:41:43.247Z,3.17
2019-03-18T06:42:14.463Z,2.93
2019-03-18T06:42:45.618Z,2.40
2019-03-18T06:43:16.819Z,2.70
2019-03-18T06:43:47.974Z,3.00
2019-03-18T06:44:19.180Z,3.20
2019-03-18T06:44:50.337Z,3.00
2019-03-18T06:45:22.524Z,3.50
2019-03-18T06:45:53.699Z,2.80
2019-03-18T06:46:25.144Z,3.20
2019-03-18T06:46:56.304Z,3.20
2019-03-18T06:47:27.522Z,2.50
2019-03-18T06:48:04.887Z,3.20
2019-03-18T06:48:31.746Z,3.13
2019-03-18T06:49:02.958Z,2.50
2019-03-18T06:49:34.158Z,2.80
2019-03-18T06:50:07.990Z,2.97
2019-03-18T06:50:39.202Z,2.90
2019-03-18T06:51:10.376Z,2.80
2019-03-18T06:51:41.569Z,2.87
2019-03-18T06:52:12.754Z,2.60
2019-03-18T06:52:43.948Z,3.30
2019-03-18T06:53:15.132Z,3.20
2019-03-18T06:53:46.285Z,2.87
2019-03-18T06:54:18.528Z,2.97
2019-03-18T06:54:49.708Z,2.63
2019-03-18T06:55:20.924Z,2.80
2019-03-18T06:55:52.103Z,3.47
2019-03-18T06:56:23.330Z,3.30
2019-03-18T06:56:54.585Z,2.80
2019-03-18T06:57:25.788Z,3.30
2019-03-18T06:57:56.953Z,3.20
2019-03-18T06:58:28.927Z,3.13